createdAt,value
2018-12-27T00:01:36.516Z,36.67
2018-12-27T00:03:45.184Z,41.13
2018-12-27T00:05:54.000Z,39.70
2018-12-27T00:08:02.771Z,42.58
2018-12-27T00:10:11.551Z,37.08
2018-12-27T00:12:20.208Z,46.05
2018-12-27T00:14:28.998Z,36.05
2018-12-27T00:16:39.128Z,48.42
2018-12-27T00:18:47.827Z,42.88
2018-12-27T00:20:56.700Z,39.88
2018-12-27T00:23:05.497Z,43.27
2018-12-27T00:25:14.919Z,41.80
2018-12-27T00:27:23.755Z,39.90
2018-12-27T00:29:32.526Z,35.90
2018-12-27T00:31:41.293Z,36.30
2018-12-27T00:33:50.020Z,43.07
2018-12-27T00:35:58.867Z,37.53
2018-12-27T00:38:08.567Z,45.03
2018-12-27T00:40:18.152Z,40.27
2018-12-27T00:42:26.867Z,41.73
2018-12-27T00:44:35.539Z,45.27
2018-12-27T00:46:44.263Z,44.95
2018-12-27T00:48:53.243Z,43.65
2018-12-27T00:51:02.612Z,39.35
2018-12-27T00:53:12.159Z,36.03
2018-12-27T00:55:20.898Z,45.03
2018-12-27T00:57:30.368Z,35.75
2018-12-27T00:59:40.000Z,33.97
2018-12-27T01:01:49.135Z,34.53
2018-12-27T01:03:58.038Z,40.80
2018-12-27T01:06:06.816Z,38.42
2018-12-27T01:08:15.804Z,37.28
2018-12-27T01:10:24.417Z,32.13
2018-12-27T01:12:33.023Z,33.40
2018-12-27T01:14:41.780Z,35.20
2018-12-27T01:16:50.807Z,41.47
2018-12-27T01:18:59.639Z,36.25
2018-12-27T01:21:08.243Z,39.50
2018-12-27T01:23:17.139Z,36.63
2018-12-27T01:25:26.611Z,40.58
2018-12-27T01:27:35.530Z,35.85
2018-12-27T01:29:45.011Z,33.00
2018-12-27T01:31:53.887Z,36.97
2018-12-27T01:34:03.579Z,31.00
2018-12-27T01:36:12.447Z,30.45
2018-12-27T01:38:21.402Z,36.35
2018-12-27T01:40:30.087Z,36.70
2018-12-27T01:42:39.515Z,32.28
2018-12-27T01:44:48.170Z,37.43
2018-12-27T01:46:57.652Z,33.73
2018-12-27T01:49:06.483Z,34.78
2018-12-27T01:51:15.107Z,45.88
2018-12-27T01:53:24.124Z,38.38
2018-12-27T01:55:32.802Z,46.00
2018-12-27T01:57:41.767Z,36.05
2018-12-27T01:59:50.395Z,43.20
2018-12-27T02:01:59.394Z,48.65
2018-12-27T02:04:08.218Z,37.20
2018-12-27T02:06:17.659Z,38.28
2018-12-27T02:08:27.167Z,45.00
2018-12-27T02:10:36.013Z,30.45
2018-12-27T02:12:44.728Z,33.67
2018-12-27T02:14:54.177Z,36.78
2018-12-27T02:17:02.883Z,42.05
2018-12-27T02:19:11.803Z,38.78
2018-12-27T02:21:20.620Z,35.90
2018-12-27T02:23:29.547Z,32.63
2018-12-27T02:25:38.343Z,34.97
2018-12-27T02:27:47.801Z,40.20
2018-12-27T02:29:56.827Z,36.13
2018-12-27T02:32:06.254Z,98.18
2018-12-27T02:34:15.076Z,41.78
2018-12-27T02:36:24.491Z,34.17
2018-12-27T02:38:34.560Z,35.08
2018-12-27T02:40:43.584Z,38.58
2018-12-27T02:42:52.171Z,29.23
2018-12-27T02:45:01.020Z,40.08
2018-12-27T02:47:10.869Z,40.88
2018-12-27T02:49:20.301Z,33.42
2018-12-27T02:51:30.248Z,41.30
2018-12-27T02:53:39.064Z,40.28
2018-12-27T02:55:47.988Z,41.63
2018-12-27T02:57:56.808Z,35.60
2018-12-27T03:00:06.139Z,40.77
2018-12-27T03:02:14.813Z,68.03
2018-12-27T03:04:24.401Z,104.80
2018-12-27T03:06:33.603Z,41.05
2018-12-27T03:08:42.343Z,38.45
2018-12-27T03:10:51.255Z,40.38
2018-12-27T03:13:00.183Z,37.05
2018-12-27T03:15:08.901Z,32.80
2018-12-27T03:17:17.429Z,33.25
2018-12-27T03:19:26.343Z,41.50
2018-12-27T03:21:35.143Z,64.25
2018-12-27T03:23:43.997Z,31.45
2018-12-27T03:25:52.686Z,44.97
2018-12-27T03:28:02.356Z,45.63
2018-12-27T03:30:11.152Z,42.65
2018-12-27T03:32:19.981Z,33.17
2018-12-27T03:34:29.216Z,42.45
2018-12-27T03:36:38.016Z,44.58
2018-12-27T03:38:47.049Z,45.03
2018-12-27T03:40:55.763Z,32.60
2018-12-27T03:43:05.365Z,48.78
2018-12-27T03:45:13.964Z,35.17
2018-12-27T03:47:23.656Z,30.77
2018-12-27T03:49:33.299Z,41.07
2018-12-27T03:51:42.326Z,35.47
2018-12-27T03:53:51.142Z,32.78
2018-12-27T03:56:00.653Z,36.50
2018-12-27T03:58:09.296Z,35.80
2018-12-27T04:00:18.935Z,35.17
2018-12-27T04:02:28.002Z,32.58
2018-12-27T04:04:36.874Z,35.10
2018-12-27T04:06:45.576Z,24.27
2018-12-27T04:08:54.169Z,28.70
2018-12-27T04:11:02.936Z,33.58
2018-12-27T04:13:11.723Z,39.95
2018-12-27T04:15:20.581Z,32.65
2018-12-27T04:17:29.279Z,26.92
2018-12-27T04:19:38.312Z,34.60
2018-12-27T04:21:47.031Z,34.83
2018-12-27T04:23:55.691Z,36.60
2018-12-27T04:26:06.104Z,38.43
2018-12-27T04:28:16.255Z,33.33
2018-12-27T04:30:25.866Z,35.85
2018-12-27T04:32:35.866Z,37.10
2018-12-27T04:34:44.651Z,31.05
2018-12-27T04:36:53.582Z,35.13
2018-12-27T04:39:02.259Z,37.13
2018-12-27T04:41:11.933Z,30.35
2018-12-27T04:43:20.883Z,32.17
2018-12-27T04:45:29.472Z,32.07
2018-12-27T04:47:38.088Z,30.90
2018-12-27T04:49:46.987Z,46.93
2018-12-27T04:51:55.787Z,33.53
2018-12-27T04:54:05.576Z,36.88
2018-12-27T04:56:14.491Z,46.07
2018-12-27T04:58:23.103Z,34.25
2018-12-27T05:00:31.697Z,34.10
2018-12-27T05:02:40.491Z,32.97
2018-12-27T05:04:49.119Z,32.70
2018-12-27T05:06:57.973Z,33.38
2018-12-27T05:09:06.799Z,31.60
2018-12-27T05:11:15.563Z,38.53
2018-12-27T05:13:24.188Z,34.73
2018-12-27T05:15:33.155Z,29.77
2018-12-27T05:17:41.664Z,28.98
2018-12-27T05:19:50.275Z,24.55
2018-12-27T05:21:59.219Z,32.47
2018-12-27T05:24:08.129Z,20.92
2018-12-27T05:26:16.844Z,26.23
2018-12-27T05:28:26.037Z,30.10
2018-12-27T05:30:34.868Z,27.97
2018-12-27T05:32:44.301Z,32.73
2018-12-27T05:34:53.148Z,29.63
2018-12-27T05:37:02.666Z,25.90
2018-12-27T05:39:11.811Z,26.60
2018-12-27T05:41:20.635Z,28.45
2018-12-27T05:43:29.455Z,28.75
2018-12-27T05:45:38.269Z,24.73
2018-12-27T05:47:49.414Z,31.50
2018-12-27T05:49:58.103Z,26.90
2018-12-27T05:52:07.595Z,25.53
2018-12-27T05:54:16.464Z,24.10
2018-12-27T05:56:26.054Z,27.65
2018-12-27T05:58:34.759Z,22.40
2018-12-27T06:00:43.895Z,27.27
2018-12-27T06:02:53.442Z,28.12
2018-12-27T06:05:02.362Z,28.07
2018-12-27T06:07:11.071Z,33.13
2018-12-27T06:09:20.407Z,25.80
2018-12-27T06:11:29.914Z,23.77
2018-12-27T06:13:38.808Z,22.62
2018-12-27T06:15:47.686Z,32.22
2018-12-27T06:17:57.199Z,29.30
2018-12-27T06:20:05.868Z,28.02
2018-12-27T06:22:14.771Z,28.00
2018-12-27T06:24:23.466Z,27.60
2018-12-27T06:26:32.100Z,28.33
2018-12-27T06:28:41.010Z,29.90
2018-12-27T06:30:50.295Z,23.10
2018-12-27T06:32:59.079Z,32.80
2018-12-27T06:35:08.493Z,30.10
2018-12-27T06:37:17.319Z,34.28
2018-12-27T06:39:26.259Z,32.50
2018-12-27T06:41:34.863Z,25.20
2018-12-27T06:43:44.395Z,25.67
2018-12-27T06:45:53.908Z,32.03
2018-12-27T06:48:02.753Z,23.75
2018-12-27T06:50:11.676Z,25.88
2018-12-27T06:52:20.492Z,26.80
2018-12-27T06:54:30.203Z,24.08
2018-12-27T06:56:39.029Z,31.40
2018-12-27T06:58:48.195Z,34.85
2018-12-27T07:00:57.094Z,27.77
2018-12-27T07:03:06.846Z,28.48
2018-12-27T07:05:15.691Z,28.25
2018-12-27T07:07:25.259Z,24.48
2018-12-27T07:09:35.595Z,26.58
2018-12-27T07:11:44.431Z,28.50
2018-12-27T07:13:53.295Z,34.38
2018-12-27T07:16:03.019Z,37.25
2018-12-27T07:18:11.756Z,26.93
2018-12-27T07:20:20.679Z,33.30
2018-12-27T07:22:29.399Z,32.30
2018-12-27T07:24:39.048Z,33.53
2018-12-27T07:26:48.489Z,32.53
2018-12-27T07:28:58.094Z,32.88
2018-12-27T07:31:06.929Z,35.88
2018-12-27T07:33:16.211Z,30.83
2018-12-27T07:35:24.828Z,35.58
2018-12-27T07:37:33.771Z,25.70
2018-12-27T07:39:42.565Z,24.80
2018-12-27T07:41:51.431Z,28.47
2018-12-27T07:44:00.168Z,29.98
2018-12-27T07:46:11.073Z,28.67
2018-12-27T07:48:17.531Z,28.05
2018-12-27T07:50:26.419Z,38.47
2018-12-27T07:52:35.320Z,27.08
2018-12-27T07:54:44.016Z,25.27
2018-12-27T07:56:53.387Z,30.42
2018-12-27T07:59:02.110Z,30.77
2018-12-27T08:01:10.906Z,31.77
2018-12-27T08:03:19.580Z,34.60
2018-12-27T08:05:29.274Z,26.92
2018-12-27T08:07:39.728Z,31.45
2018-12-27T08:09:48.496Z,28.25
2018-12-27T08:11:57.064Z,45.00
2018-12-27T08:14:07.091Z,29.42
2018-12-27T08:16:16.723Z,25.73
2018-12-27T08:18:25.327Z,30.33
2018-12-27T08:20:34.187Z,43.20
2018-12-27T08:22:42.867Z,40.80
2018-12-27T08:24:51.887Z,30.98
2018-12-27T08:27:00.656Z,37.83
2018-12-27T08:29:09.421Z,31.52
2018-12-27T08:31:19.000Z,31.10
2018-12-27T08:33:27.727Z,31.25
2018-12-27T08:35:36.570Z,50.80
2018-12-27T08:37:45.606Z,36.13
2018-12-27T08:39:55.215Z,36.50
2018-12-27T08:42:04.722Z,32.97
2018-12-27T08:44:13.663Z,33.00
2018-12-27T08:46:23.302Z,30.17
2018-12-27T08:48:32.132Z,38.88
2018-12-27T08:50:40.959Z,29.70
2018-12-27T08:52:50.561Z,34.17
2018-12-27T08:54:59.296Z,36.28
2018-12-27T08:57:07.985Z,25.53
2018-12-27T08:59:16.533Z,30.27
2018-12-27T09:01:25.251Z,38.57
2018-12-27T09:03:34.860Z,24.70
2018-12-27T09:05:43.471Z,66.65
2018-12-27T09:07:53.338Z,75.82
2018-12-27T09:10:02.848Z,63.13
2018-12-27T09:12:11.491Z,41.50
2018-12-27T09:14:21.029Z,44.72
2018-12-27T09:16:30.319Z,35.63
2018-12-27T09:18:39.819Z,40.20
2018-12-27T09:20:48.577Z,46.37
2018-12-27T09:22:57.394Z,33.30
2018-12-27T09:25:06.026Z,42.77
2018-12-27T09:27:14.919Z,37.28
2018-12-27T09:29:23.691Z,71.57
2018-12-27T09:31:32.531Z,37.20
2018-12-27T09:33:41.432Z,42.35
2018-12-27T09:35:50.147Z,34.15
2018-12-27T09:37:58.665Z,35.35
2018-12-27T09:40:07.923Z,40.35
2018-12-27T09:42:16.914Z,43.50
2018-12-27T09:44:25.748Z,33.70
2018-12-27T09:46:34.554Z,43.25
2018-12-27T09:48:43.155Z,35.45
2018-12-27T09:50:52.853Z,42.33
2018-12-27T09:53:01.415Z,36.17
2018-12-27T09:55:10.254Z,33.88
2018-12-27T09:57:19.037Z,37.13
2018-12-27T09:59:27.730Z,32.63
2018-12-27T10:01:36.394Z,34.20
2018-12-27T10:03:45.869Z,31.77
2018-12-27T10:05:54.727Z,32.72
2018-12-27T10:08:03.629Z,38.47
2018-12-27T10:10:12.403Z,43.30
2018-12-27T10:12:21.416Z,33.53
2018-12-27T10:14:29.973Z,28.90
2018-12-27T10:16:39.367Z,53.17
2018-12-27T10:18:48.292Z,34.37
2018-12-27T10:20:57.055Z,39.17
2018-12-27T10:23:05.915Z,34.67
2018-12-27T10:25:15.263Z,33.37
2018-12-27T10:27:24.335Z,38.70
2018-12-27T10:29:33.683Z,33.35
2018-12-27T10:31:42.476Z,38.17
2018-12-27T10:33:51.359Z,37.35
2018-12-27T10:36:00.124Z,40.28
2018-12-27T10:38:09.630Z,39.45
2018-12-27T10:40:19.032Z,40.60
2018-12-27T10:42:27.877Z,39.63
2018-12-27T10:44:36.582Z,45.67
2018-12-27T10:46:45.319Z,36.13
2018-12-27T10:48:55.912Z,43.83
2018-12-27T10:51:04.580Z,46.05
2018-12-27T10:53:13.415Z,39.55
2018-12-27T10:55:22.211Z,37.17
2018-12-27T10:57:30.807Z,44.10
2018-12-27T10:59:40.269Z,35.05
2018-12-27T11:01:49.194Z,40.33
2018-12-27T11:03:58.500Z,46.20
2018-12-27T11:06:08.151Z,48.10
2018-12-27T11:08:17.029Z,43.20
2018-12-27T11:10:26.032Z,33.70
2018-12-27T11:12:35.951Z,44.43
2018-12-27T11:14:44.522Z,42.67
2018-12-27T11:16:53.600Z,40.60
2018-12-27T11:19:02.174Z,31.40
2018-12-27T11:21:10.970Z,34.67
2018-12-27T11:23:19.845Z,38.38
2018-12-27T11:25:28.910Z,42.35
2018-12-27T11:27:37.648Z,40.13
2018-12-27T11:29:46.216Z,35.90
2018-12-27T11:31:55.812Z,39.77
2018-12-27T11:34:04.651Z,37.60
2018-12-27T11:36:17.319Z,43.47
2018-12-27T11:38:22.810Z,36.80
2018-12-27T11:40:31.751Z,41.53
2018-12-27T11:42:41.340Z,38.63
2018-12-27T11:44:50.194Z,40.93
2018-12-27T11:46:59.786Z,39.47
2018-12-27T11:49:09.460Z,40.47
2018-12-27T11:51:18.911Z,44.87
2018-12-27T11:53:27.830Z,33.00
2018-12-27T11:55:36.967Z,50.20
2018-12-27T11:57:45.728Z,43.93
2018-12-27T11:59:55.103Z,42.00
2018-12-27T12:02:04.319Z,37.00
2018-12-27T12:04:12.961Z,34.33
2018-12-27T12:06:21.871Z,35.05
2018-12-27T12:08:30.795Z,29.27
2018-12-27T12:10:39.718Z,39.50
2018-12-27T12:12:48.336Z,38.45
2018-12-27T12:14:57.047Z,37.65
2018-12-27T12:17:05.871Z,30.92
2018-12-27T12:19:14.523Z,33.75
2018-12-27T12:21:23.472Z,28.40
2018-12-27T12:23:32.283Z,26.63
2018-12-27T12:25:41.089Z,28.10
2018-12-27T12:27:50.991Z,32.78
2018-12-27T12:30:00.221Z,43.50
2018-12-27T12:32:09.730Z,38.87
2018-12-27T12:34:19.503Z,32.00
2018-12-27T12:36:28.565Z,30.02
2018-12-27T12:38:38.270Z,34.90
2018-12-27T12:40:47.183Z,37.47
2018-12-27T12:42:56.491Z,34.67
2018-12-27T12:45:05.337Z,37.77
2018-12-27T12:47:14.364Z,37.53
2018-12-27T12:49:24.195Z,31.80
2018-12-27T12:51:34.341Z,41.13
2018-12-27T12:53:43.279Z,28.47
2018-12-27T12:55:52.821Z,26.60
2018-12-27T12:58:01.640Z,26.37
2018-12-27T13:00:11.350Z,32.42
2018-12-27T13:02:20.104Z,30.45
2018-12-27T13:04:28.898Z,30.40
2018-12-27T13:06:38.481Z,26.75
2018-12-27T13:08:47.111Z,28.02
2018-12-27T13:10:56.510Z,31.52
2018-12-27T13:13:05.534Z,39.85
2018-12-27T13:15:14.248Z,36.57
2018-12-27T13:17:23.267Z,31.12
2018-12-27T13:19:32.408Z,27.98
2018-12-27T13:21:42.039Z,30.95
2018-12-27T13:23:51.476Z,31.05
2018-12-27T13:26:00.275Z,31.27
2018-12-27T13:28:09.307Z,31.67
2018-12-27T13:30:18.103Z,29.00
2018-12-27T13:32:26.679Z,34.80
2018-12-27T13:34:36.388Z,40.63
2018-12-27T13:36:45.979Z,34.07
2018-12-27T13:38:54.836Z,29.97
2018-12-27T13:41:03.757Z,31.70
2018-12-27T13:43:12.909Z,34.13
2018-12-27T13:45:22.311Z,33.30
2018-12-27T13:47:31.153Z,33.47
2018-12-27T13:49:39.961Z,43.70
2018-12-27T13:51:49.336Z,37.25
2018-12-27T13:53:58.203Z,39.88
2018-12-27T13:56:07.022Z,36.30
2018-12-27T13:58:16.533Z,32.30
2018-12-27T14:00:25.477Z,39.05
2018-12-27T14:02:34.115Z,37.80
2018-12-27T14:04:42.931Z,29.95
2018-12-27T14:06:51.560Z,33.88
2018-12-27T14:09:00.453Z,30.12
2018-12-27T14:11:09.191Z,28.75
2018-12-27T14:13:18.629Z,36.63
2018-12-27T14:15:27.448Z,31.07
2018-12-27T14:17:36.135Z,32.93
2018-12-27T14:19:44.874Z,29.73
2018-12-27T14:21:53.764Z,40.58
2018-12-27T14:24:02.707Z,39.08
2018-12-27T14:26:11.554Z,33.58
2018-12-27T14:28:20.295Z,35.63
2018-12-27T14:30:29.884Z,43.08
2018-12-27T14:32:39.421Z,39.03
2018-12-27T14:34:49.089Z,38.47
2018-12-27T14:36:57.915Z,33.85
2018-12-27T14:39:06.827Z,41.05
2018-12-27T14:41:15.546Z,36.65
2018-12-27T14:43:24.252Z,41.85
2018-12-27T14:45:34.404Z,44.72
2018-12-27T14:47:43.252Z,37.50
2018-12-27T14:49:52.352Z,34.20
2018-12-27T14:52:01.875Z,32.73
2018-12-27T14:54:11.331Z,43.57
2018-12-27T14:56:19.946Z,40.10
2018-12-27T14:58:29.167Z,37.67
2018-12-27T15:00:37.843Z,41.33
2018-12-27T15:02:46.771Z,38.15
2018-12-27T15:04:55.629Z,44.65
2018-12-27T15:07:04.438Z,35.00
2018-12-27T15:09:13.779Z,36.55
2018-12-27T15:11:23.521Z,43.17
2018-12-27T15:13:33.155Z,40.08
2018-12-27T15:15:42.562Z,34.10
2018-12-27T15:17:52.843Z,36.10
2018-12-27T15:20:01.618Z,40.40
2018-12-27T15:22:10.451Z,33.33
2018-12-27T15:24:19.087Z,44.90
2018-12-27T15:26:28.063Z,37.23
2018-12-27T15:28:37.567Z,30.05
2018-12-27T15:30:47.195Z,40.00
2018-12-27T15:32:56.202Z,44.50
2018-12-27T15:35:05.845Z,38.35
2018-12-27T15:37:15.299Z,34.25
2018-12-27T15:39:25.035Z,45.42
2018-12-27T15:41:34.638Z,45.00
2018-12-27T15:43:43.499Z,47.40
2018-12-27T15:45:52.211Z,46.70
2018-12-27T15:48:01.107Z,40.10
2018-12-27T15:50:09.867Z,44.10
2018-12-27T15:52:19.875Z,51.20
2018-12-27T15:54:29.335Z,34.13
2018-12-27T15:56:38.084Z,39.53
2018-12-27T15:58:46.846Z,46.40
2018-12-27T16:00:55.791Z,37.33
2018-12-27T16:03:05.227Z,39.53
2018-12-27T16:05:14.110Z,43.47
2018-12-27T16:07:22.768Z,41.58
2018-12-27T16:09:31.659Z,41.23
2018-12-27T16:11:40.403Z,41.43
2018-12-27T16:13:49.123Z,40.10
2018-12-27T16:15:57.947Z,48.83
2018-12-27T16:18:06.655Z,38.53
2018-12-27T16:20:15.479Z,38.53
2018-12-27T16:22:24.375Z,52.62
2018-12-27T16:24:33.211Z,41.60
2018-12-27T16:26:41.828Z,53.05
2018-12-27T16:28:51.578Z,50.22
2018-12-27T16:31:00.299Z,42.22
2018-12-27T16:33:08.803Z,44.60
2018-12-27T16:35:18.555Z,51.33
2018-12-27T16:37:27.367Z,38.37
2018-12-27T16:39:36.057Z,47.60
2018-12-27T16:41:45.933Z,41.17
2018-12-27T16:43:54.653Z,51.97
2018-12-27T16:46:04.269Z,48.80
2018-12-27T16:48:14.238Z,46.45
2018-12-27T16:50:24.131Z,56.67
2018-12-27T16:52:32.895Z,48.90
2018-12-27T16:54:41.591Z,60.40
2018-12-27T16:56:50.223Z,50.22
2018-12-27T16:58:59.151Z,55.60
2018-12-27T17:01:08.076Z,51.43
2018-12-27T17:03:16.899Z,58.13
2018-12-27T17:05:25.723Z,59.10
2018-12-27T17:07:34.735Z,52.57
2018-12-27T17:09:43.651Z,53.73
2018-12-27T17:11:53.415Z,49.40
2018-12-27T17:14:02.132Z,63.67
2018-12-27T17:16:10.949Z,48.80
2018-12-27T17:18:19.709Z,55.97
2018-12-27T17:20:29.360Z,49.38
2018-12-27T17:22:38.019Z,44.45
2018-12-27T17:24:46.839Z,50.17
2018-12-27T17:26:55.657Z,47.23
2018-12-27T17:29:04.339Z,59.37
2018-12-27T17:31:14.628Z,59.17
2018-12-27T17:33:23.446Z,60.43
2018-12-27T17:35:31.955Z,54.97
2018-12-27T17:37:41.014Z,54.75
2018-12-27T17:39:49.848Z,67.10
2018-12-27T17:41:58.519Z,66.72
2018-12-27T17:44:07.219Z,50.20
2018-12-27T17:46:16.975Z,61.80
2018-12-27T17:48:25.589Z,72.15
2018-12-27T17:50:34.316Z,56.78
2018-12-27T17:52:43.937Z,56.63
2018-12-27T17:54:53.039Z,70.27
2018-12-27T17:57:01.697Z,63.33
2018-12-27T17:59:10.514Z,61.33
2018-12-27T18:01:20.027Z,66.33
2018-12-27T18:03:28.915Z,61.75
2018-12-27T18:05:37.587Z,67.65
2018-12-27T18:07:46.208Z,52.35
2018-12-27T18:09:54.960Z,62.42
2018-12-27T18:12:04.655Z,57.08
2018-12-27T18:14:13.347Z,60.70
2018-12-27T18:16:22.203Z,73.62
2018-12-27T18:18:30.908Z,76.60
2018-12-27T18:20:39.743Z,61.93
2018-12-27T18:22:48.348Z,90.27
2018-12-27T18:24:57.192Z,68.63
2018-12-27T18:27:06.092Z,68.97
2018-12-27T18:29:15.015Z,67.47
2018-12-27T18:31:24.548Z,77.57
2018-12-27T18:33:33.314Z,72.95
2018-12-27T18:35:41.982Z,81.05
2018-12-27T18:37:51.624Z,70.37
2018-12-27T18:40:00.339Z,68.55
2018-12-27T18:42:09.160Z,70.90
2018-12-27T18:44:18.095Z,69.70
2018-12-27T18:46:27.946Z,106.00
2018-12-27T18:48:37.636Z,81.93
2018-12-27T18:50:46.391Z,73.67
2018-12-27T18:52:55.163Z,82.60
2018-12-27T18:55:04.074Z,85.60
2018-12-27T18:57:12.939Z,78.43
2018-12-27T18:59:21.798Z,81.75
2018-12-27T19:01:31.391Z,77.47
2018-12-27T19:03:40.031Z,57.60
2018-12-27T19:05:48.725Z,71.30
2018-12-27T19:07:57.320Z,71.75
2018-12-27T19:10:06.079Z,77.23
2018-12-27T19:12:26.729Z,71.00
2018-12-27T19:14:35.323Z,66.20
2018-12-27T19:16:43.974Z,71.33
2018-12-27T19:18:52.759Z,67.50
2018-12-27T19:21:01.439Z,54.63
2018-12-27T19:23:10.559Z,68.32
2018-12-27T19:25:19.455Z,72.15
2018-12-27T19:27:28.478Z,75.10
2018-12-27T19:29:37.193Z,72.65
2018-12-27T19:31:45.896Z,77.18
2018-12-27T19:33:54.607Z,59.50
2018-12-27T19:36:04.100Z,66.30
2018-12-27T19:38:13.499Z,77.13
2018-12-27T19:40:22.083Z,60.20
2018-12-27T19:42:31.679Z,62.20
2018-12-27T19:44:41.321Z,72.87
2018-12-27T19:46:51.671Z,55.37
2018-12-27T19:49:00.597Z,60.40
2018-12-27T19:51:09.501Z,55.35
2018-12-27T19:53:18.189Z,60.60
2018-12-27T19:55:28.598Z,60.70
2018-12-27T19:57:37.299Z,63.87
2018-12-27T19:59:46.166Z,53.40
2018-12-27T20:01:56.758Z,57.03
2018-12-27T20:04:04.278Z,47.73
2018-12-27T20:06:12.944Z,54.70
2018-12-27T20:08:21.727Z,51.23
2018-12-27T20:10:30.858Z,61.70
2018-12-27T20:12:39.513Z,52.57
2018-12-27T20:14:48.455Z,53.25
2018-12-27T20:16:57.284Z,60.60
2018-12-27T20:19:06.927Z,63.10
2018-12-27T20:21:15.630Z,63.22
2018-12-27T20:23:25.342Z,58.47
2018-12-27T20:25:34.711Z,54.80
2018-12-27T20:27:44.270Z,59.90
2018-12-27T20:29:54.608Z,63.10
2018-12-27T20:32:03.187Z,44.20
2018-12-27T20:34:12.877Z,59.00
2018-12-27T20:36:21.695Z,53.40
2018-12-27T20:38:30.622Z,70.37
2018-12-27T20:40:39.547Z,61.78
2018-12-27T20:42:48.943Z,60.80
2018-12-27T20:44:57.685Z,72.05
2018-12-27T20:47:07.235Z,56.03
2018-12-27T20:49:15.923Z,59.55
2018-12-27T20:51:25.896Z,66.22
2018-12-27T20:53:35.538Z,63.13
2018-12-27T20:55:44.454Z,65.10
2018-12-27T20:57:53.274Z,57.37
2018-12-27T21:00:02.100Z,66.37
2018-12-27T21:02:10.911Z,58.13
2018-12-27T21:04:20.281Z,54.90
2018-12-27T21:06:29.377Z,62.08
2018-12-27T21:08:38.504Z,61.85
2018-12-27T21:10:47.283Z,60.90
2018-12-27T21:12:56.138Z,55.05
2018-12-27T21:15:05.557Z,58.85
2018-12-27T21:17:15.386Z,62.90
2018-12-27T21:19:24.032Z,60.38
2018-12-27T21:21:32.643Z,53.20
2018-12-27T21:23:41.560Z,52.60
2018-12-27T21:25:50.626Z,61.40
2018-12-27T21:27:59.303Z,56.80
2018-12-27T21:30:08.016Z,48.53
2018-12-27T21:32:16.963Z,53.80
2018-12-27T21:34:25.744Z,68.18
2018-12-27T21:36:34.812Z,57.25
2018-12-27T21:38:43.775Z,70.95
2018-12-27T21:40:52.377Z,60.25
2018-12-27T21:43:02.039Z,53.05
2018-12-27T21:45:11.005Z,51.40
2018-12-27T21:47:20.720Z,53.47
2018-12-27T21:49:29.255Z,53.97
2018-12-27T21:51:38.071Z,48.97
2018-12-27T21:53:47.097Z,52.27
2018-12-27T21:55:55.715Z,61.87
2018-12-27T21:58:04.577Z,59.15
2018-12-27T22:00:13.456Z,69.25
2018-12-27T22:02:22.034Z,63.22
2018-12-27T22:04:30.785Z,55.30
2018-12-27T22:06:39.852Z,63.78
2018-12-27T22:08:49.244Z,59.30
2018-12-27T22:10:58.744Z,68.72
2018-12-27T22:13:07.498Z,59.37
2018-12-27T22:15:17.106Z,58.17
2018-12-27T22:17:25.714Z,50.77
2018-12-27T22:19:34.680Z,80.33
2018-12-27T22:21:43.441Z,58.67
2018-12-27T22:23:52.251Z,50.88
2018-12-27T22:26:01.241Z,63.90
2018-12-27T22:28:09.859Z,62.13
2018-12-27T22:30:19.365Z,68.62
2018-12-27T22:32:28.113Z,64.82
2018-12-27T22:34:36.990Z,68.53
2018-12-27T22:36:45.696Z,70.78
2018-12-27T22:38:54.431Z,58.22
2018-12-27T22:41:03.255Z,55.15
2018-12-27T22:43:12.208Z,62.28
2018-12-27T22:45:21.844Z,54.38
2018-12-27T22:47:30.655Z,59.58
2018-12-27T22:49:40.403Z,64.45
2018-12-27T22:51:50.591Z,45.03
2018-12-27T22:53:59.460Z,55.50
2018-12-27T22:56:09.097Z,55.90
2018-12-27T22:58:19.427Z,59.03
2018-12-27T23:00:34.027Z,48.83
2018-12-27T23:02:43.423Z,43.27
2018-12-27T23:04:52.898Z,59.33
2018-12-27T23:07:01.717Z,56.95
2018-12-27T23:09:10.407Z,52.50
2018-12-27T23:11:19.251Z,53.25
2018-12-27T23:13:28.277Z,66.65
2018-12-27T23:15:36.890Z,52.42
2018-12-27T23:17:45.511Z,51.92
2018-12-27T23:19:54.636Z,58.53
2018-12-27T23:22:03.511Z,57.33
2018-12-27T23:24:13.157Z,52.53
2018-12-27T23:26:22.020Z,51.63
2018-12-27T23:28:30.830Z,42.67
2018-12-27T23:30:40.271Z,53.30
2018-12-27T23:32:48.983Z,52.00
2018-12-27T23:34:57.909Z,45.10
2018-12-27T23:37:06.523Z,51.50
2018-12-27T23:39:16.471Z,47.00
2018-12-27T23:41:25.473Z,64.37
2018-12-27T23:43:34.075Z,51.75
2018-12-27T23:45:43.851Z,49.93
2018-12-27T23:47:52.427Z,45.27
2018-12-27T23:50:01.412Z,50.30
2018-12-27T23:52:10.063Z,50.60
2018-12-27T23:54:19.039Z,46.47
2018-12-27T23:56:27.838Z,48.40
2018-12-27T23:58:36.467Z,50.85
